createdAt,value
2018-06-07T04:23:05.912Z,14.60
2018-06-07T04:25:34.643Z,14.17
2018-06-07T04:28:03.467Z,13.50
2018-06-07T04:30:33.307Z,14.20
2018-06-07T04:33:02.852Z,14.50
2018-06-07T04:35:31.975Z,15.13
2018-06-07T04:38:01.536Z,14.80
2018-06-07T04:40:31.591Z,15.17
2018-06-07T04:43:00.885Z,15.40
2018-06-07T04:45:30.296Z,16.17
2018-06-07T04:47:59.088Z,13.77
2018-06-07T04:50:28.163Z,13.10
2018-06-07T04:52:58.792Z,11.10
2018-06-07T04:55:28.236Z,14.43
2018-06-07T04:57:57.415Z,14.17
2018-06-07T05:00:27.737Z,15.17
2018-06-07T05:02:57.836Z,14.10
2018-06-07T05:05:28.672Z,16.07
2018-06-07T05:07:58.705Z,15.60
2018-06-07T05:10:28.510Z,13.00
2018-06-07T05:12:59.322Z,14.97
2018-06-07T05:15:30.038Z,12.47
2018-06-07T05:17:59.504Z,12.13
2018-06-07T05:20:28.971Z,13.10
2018-06-07T05:22:58.732Z,12.93
2018-06-07T05:25:28.619Z,15.33
2018-06-07T05:27:57.589Z,16.37
2018-06-07T05:30:27.099Z,13.97
2018-06-07T05:32:56.980Z,14.10
2018-06-07T05:35:26.944Z,12.97
2018-06-07T05:37:57.497Z,13.30
2018-06-07T05:40:27.200Z,14.10
2018-06-07T05:42:57.428Z,13.23
2018-06-07T05:45:27.212Z,14.80
2018-06-07T05:47:57.024Z,13.10
2018-06-07T05:50:26.856Z,16.57
2018-06-07T05:52:56.632Z,18.43
2018-06-07T05:55:26.468Z,17.03
2018-06-07T05:57:56.238Z,16.10
2018-06-07T06:00:26.021Z,15.80
2018-06-07T06:02:55.059Z,18.80
2018-06-07T06:05:25.635Z,16.70
2018-06-07T06:07:54.531Z,17.60
2018-06-07T06:10:24.303Z,19.63
2018-06-07T06:12:54.235Z,18.70
2018-06-07T06:15:23.127Z,19.03
2018-06-07T06:17:51.737Z,15.20
2018-06-07T06:20:20.403Z,15.60
2018-06-07T06:22:49.134Z,17.20
2018-06-07T06:25:17.803Z,17.13
2018-06-07T06:27:46.638Z,20.70
2018-06-07T06:30:15.373Z,15.77
2018-06-07T06:32:44.015Z,18.00
2018-06-07T06:35:13.162Z,17.13
2018-06-07T06:38:49.609Z,17.53
2018-06-07T06:41:19.747Z,17.57
2018-06-07T06:43:49.579Z,19.60
2018-06-07T06:46:19.034Z,19.10
2018-06-07T06:48:47.950Z,17.93
2018-06-07T06:51:16.596Z,18.20
2018-06-07T06:53:46.193Z,20.70
2018-06-07T06:56:15.211Z,18.50
2018-06-07T06:58:44.423Z,19.83
2018-06-07T07:01:14.606Z,19.10
2018-06-07T07:03:43.506Z,20.80
2018-06-07T07:06:12.911Z,19.63
2018-06-07T07:08:41.537Z,19.20
2018-06-07T07:11:10.498Z,19.17
2018-06-07T07:13:40.211Z,18.40
2018-06-07T07:16:09.076Z,15.70
2018-06-07T07:18:39.662Z,16.97
2018-06-07T07:21:08.735Z,16.43
2018-06-07T07:23:38.543Z,15.03
2018-06-07T07:26:07.152Z,17.40
2018-06-07T07:28:35.777Z,16.40
2018-06-07T07:31:04.419Z,13.43
2018-06-07T07:33:33.466Z,16.40
2018-06-07T07:36:02.835Z,15.60
2018-06-07T07:38:33.107Z,14.30
2018-06-07T07:41:01.867Z,13.17
2018-06-07T07:43:30.469Z,12.10
2018-06-07T07:45:59.147Z,11.50
2018-06-07T07:48:28.248Z,13.13
2018-06-07T07:50:57.142Z,14.80
2018-06-07T07:53:25.810Z,12.60
2018-06-07T07:55:54.925Z,11.90
2018-06-07T07:58:24.141Z,10.47
2018-06-07T08:00:53.533Z,13.03
2018-06-07T08:03:22.118Z,10.80
2018-06-07T08:05:51.145Z,12.67
2018-06-07T08:08:20.612Z,11.90
2018-06-07T08:10:49.310Z,12.47
2018-06-07T08:13:18.566Z,11.63
2018-06-07T08:15:47.199Z,13.10
2018-06-07T08:18:17.123Z,10.30
2018-06-07T08:20:46.119Z,11.43
2018-06-07T08:23:14.754Z,10.73
2018-06-07T08:25:43.582Z,10.20
2018-06-07T08:28:13.371Z,11.80
2018-06-07T08:30:42.649Z,9.93
2018-06-07T08:33:11.713Z,9.70
2018-06-07T08:35:41.684Z,9.97
2018-06-07T08:38:10.626Z,9.43
2018-06-07T08:40:40.427Z,10.53
2018-06-07T08:43:09.209Z,10.27
2018-06-07T08:45:38.167Z,9.47
2018-06-07T08:48:06.831Z,8.30
2018-06-07T08:50:35.575Z,8.70
2018-06-07T08:53:04.769Z,9.47
2018-06-07T08:55:33.441Z,8.53
2018-06-07T08:58:03.913Z,9.17
2018-06-07T09:00:33.608Z,9.57
2018-06-07T09:03:04.380Z,8.20
2018-06-07T09:05:34.199Z,8.60
2018-06-07T09:08:03.234Z,7.20
2018-06-07T09:10:32.098Z,8.83
2018-06-07T09:13:00.951Z,7.80
2018-06-07T09:15:29.679Z,8.73
2018-06-07T09:17:59.504Z,10.00
2018-06-07T09:20:29.237Z,8.90
2018-06-07T09:22:58.848Z,9.60
2018-06-07T09:25:28.791Z,9.63
2018-06-07T09:27:57.694Z,9.60
2018-06-07T09:30:27.099Z,10.20
2018-06-07T09:32:56.627Z,9.37
2018-06-07T09:35:25.869Z,11.70
2018-06-07T09:37:54.847Z,10.17
2018-06-07T09:40:23.748Z,10.07
2018-06-07T09:42:52.636Z,11.17
2018-06-07T09:45:22.230Z,10.50
2018-06-07T09:47:50.850Z,11.27
2018-06-07T09:50:19.470Z,10.73
2018-06-07T09:52:48.680Z,10.30
2018-06-07T09:55:19.523Z,11.90
2018-06-07T09:57:48.080Z,11.00
2018-06-07T10:00:21.913Z,13.43
2018-06-07T10:02:51.071Z,11.60
2018-06-07T10:05:20.234Z,11.03
2018-06-07T10:07:48.847Z,11.03
2018-06-07T10:10:17.443Z,11.37
2018-06-07T10:12:46.291Z,11.07
2018-06-07T10:15:16.058Z,10.67
2018-06-07T10:17:44.698Z,12.37
2018-06-07T10:20:13.283Z,11.90
2018-06-07T10:22:41.878Z,12.00
2018-06-07T10:25:11.159Z,10.50
2018-06-07T10:27:40.059Z,12.70
2018-06-07T10:30:08.903Z,11.07
2018-06-07T10:32:37.718Z,12.43
2018-06-07T10:35:06.709Z,11.77
2018-06-07T10:37:35.620Z,12.93
2018-06-07T10:40:06.047Z,10.47
2018-06-07T10:42:35.108Z,12.80
2018-06-07T10:45:04.465Z,10.10
2018-06-07T10:47:33.189Z,11.13
2018-06-07T10:50:02.631Z,11.20
2018-06-07T10:52:31.482Z,10.03
2018-06-07T10:55:00.851Z,10.50
2018-06-07T10:57:29.479Z,10.90
2018-06-07T10:59:58.543Z,10.00
2018-06-07T11:02:27.315Z,10.00
2018-06-07T11:04:55.939Z,10.80
2018-06-07T11:07:25.264Z,9.37
2018-06-07T11:09:54.351Z,10.33
2018-06-07T11:12:22.938Z,9.40
2018-06-07T11:14:52.245Z,10.00
2018-06-07T11:17:21.803Z,9.27
2018-06-07T11:19:51.872Z,9.47
2018-06-07T11:22:20.837Z,9.97
2018-06-07T11:24:50.227Z,9.63
2018-06-07T11:27:18.887Z,8.60
2018-06-07T11:29:47.925Z,9.50
2018-06-07T11:32:17.907Z,9.70
2018-06-07T11:34:46.775Z,9.13
2018-06-07T11:37:15.626Z,10.33
2018-06-07T11:39:45.401Z,11.27
2018-06-07T11:42:15.876Z,9.17
2018-06-07T11:44:44.764Z,8.93
2018-06-07T11:47:13.414Z,9.67
2018-06-07T11:49:42.372Z,11.13
2018-06-07T11:52:12.176Z,9.97
2018-06-07T11:54:41.107Z,10.33
2018-06-07T11:57:10.426Z,9.57
2018-06-07T11:59:39.718Z,12.07
2018-06-07T12:02:09.540Z,9.13
2018-06-07T12:04:38.485Z,10.40
2018-06-07T12:07:08.299Z,9.37
2018-06-07T12:09:37.117Z,11.00
2018-06-07T12:12:06.138Z,9.20
2018-06-07T12:14:34.778Z,9.23
2018-06-07T12:17:04.313Z,9.70
2018-06-07T12:19:34.248Z,11.37
2018-06-07T12:22:04.215Z,7.97
2018-06-07T12:24:32.906Z,10.00
2018-06-07T12:27:01.611Z,10.27
2018-06-07T12:29:33.367Z,10.33
2018-06-07T12:32:02.435Z,8.93
2018-06-07T12:34:31.703Z,9.70
2018-06-07T12:37:01.563Z,10.60
2018-06-07T12:39:30.145Z,8.53
2018-06-07T12:41:58.760Z,9.90
2018-06-07T12:44:28.339Z,9.07
2018-06-07T12:46:57.204Z,10.30
2018-06-07T12:49:25.897Z,10.27
2018-06-07T12:51:54.544Z,9.50
2018-06-07T12:54:25.259Z,9.67
2018-06-07T12:56:54.952Z,10.13
2018-06-07T12:59:24.148Z,9.73
2018-06-07T13:01:53.631Z,8.60
2018-06-07T13:04:22.295Z,12.80
2018-06-07T13:06:52.455Z,11.00
2018-06-07T13:09:22.075Z,12.17
2018-06-07T13:11:51.091Z,11.20
2018-06-07T13:14:20.067Z,10.40
2018-06-07T13:16:48.814Z,11.67
2018-06-07T13:19:18.487Z,11.57
2018-06-07T13:21:48.731Z,11.53
2018-06-07T13:24:17.423Z,11.53
2018-06-07T13:26:47.941Z,11.20
2018-06-07T13:29:17.591Z,13.00
2018-06-07T13:31:47.536Z,12.77
2018-06-07T13:34:16.293Z,11.00
2018-06-07T13:36:45.206Z,10.40
2018-06-07T13:39:15.643Z,11.40
2018-06-07T13:41:44.917Z,11.07
2018-06-07T13:44:14.505Z,11.43
2018-06-07T13:46:44.411Z,11.70
2018-06-07T13:49:13.447Z,11.80
2018-06-07T13:51:43.167Z,10.90
2018-06-07T13:54:13.543Z,12.53
2018-06-07T13:56:44.500Z,12.77
2018-06-07T13:59:14.263Z,11.00
2018-06-07T14:01:43.090Z,12.13
2018-06-07T14:04:12.947Z,10.17
2018-06-07T14:06:42.904Z,11.33
2018-06-07T14:09:12.095Z,10.40
2018-06-07T14:11:41.542Z,11.20
2018-06-07T14:14:12.197Z,10.90
2018-06-07T14:16:41.226Z,10.60
2018-06-07T14:19:10.135Z,11.57
2018-06-07T14:21:38.919Z,12.27
2018-06-07T14:24:08.095Z,13.23
2018-06-07T14:26:38.069Z,13.70
2018-06-07T14:29:08.800Z,14.07
2018-06-07T14:31:37.892Z,14.03
2018-06-07T14:34:07.680Z,17.77
2018-06-07T14:36:37.661Z,14.83
2018-06-07T14:39:07.819Z,15.03
2018-06-07T14:41:37.156Z,16.27
2018-06-07T14:44:06.639Z,17.70
2018-06-07T14:46:35.317Z,18.03
2018-06-07T14:49:04.548Z,18.60
2018-06-07T14:51:34.520Z,18.40
2018-06-07T14:54:04.475Z,18.50
2018-06-07T14:56:34.200Z,18.90
2018-06-07T14:59:03.437Z,17.33
2018-06-07T15:01:33.946Z,18.93
2018-06-07T15:04:02.723Z,17.37
2018-06-07T15:06:32.583Z,18.00
2018-06-07T15:09:02.208Z,17.00
2018-06-07T15:11:30.880Z,16.57
2018-06-07T15:14:01.694Z,19.77
2018-06-07T15:16:31.812Z,17.90
2018-06-07T15:19:01.583Z,16.70
2018-06-07T15:21:30.632Z,16.43
2018-06-07T15:24:00.163Z,17.70
2018-06-07T15:26:29.067Z,16.47
2018-06-07T15:28:58.780Z,16.03
2018-06-07T15:31:28.702Z,17.13
2018-06-07T15:33:58.363Z,16.50
2018-06-07T15:36:27.310Z,15.57
2018-06-07T15:38:56.855Z,16.83
2018-06-07T15:41:26.937Z,14.43
2018-06-07T15:43:56.771Z,16.13
2018-06-07T15:46:26.586Z,15.20
2018-06-07T15:48:56.403Z,14.27
2018-06-07T15:51:26.231Z,14.37
2018-06-07T15:53:55.975Z,13.10
2018-06-07T15:56:26.748Z,13.17
2018-06-07T15:58:56.681Z,13.13
2018-06-07T16:01:26.188Z,10.47
2018-06-07T16:03:56.329Z,8.83
2018-06-07T16:06:27.105Z,6.70
2018-06-07T16:08:56.940Z,7.63
2018-06-07T16:11:25.676Z,8.70
2018-06-07T16:13:55.377Z,8.77
2018-06-07T16:16:25.381Z,7.57
2018-06-07T16:18:55.223Z,5.83
2018-06-07T16:21:25.435Z,7.20
2018-06-07T16:23:55.840Z,6.43
2018-06-07T16:26:26.611Z,5.73
2018-06-07T16:28:56.548Z,5.70
2018-06-07T16:31:26.341Z,5.80
2018-06-07T16:33:56.120Z,6.73
2018-06-07T16:36:25.936Z,6.50
2018-06-07T16:38:58.833Z,5.83
2018-06-07T16:41:29.886Z,5.63
2018-06-07T16:44:00.367Z,7.53
2018-06-07T16:46:30.268Z,7.10
2018-06-07T16:49:00.106Z,9.33
2018-06-07T16:51:29.921Z,7.30
2018-06-07T16:54:00.596Z,8.83
2018-06-07T16:56:31.591Z,8.40
2018-06-07T16:59:02.944Z,6.07
2018-06-07T17:04:52.694Z,5.20
2018-06-07T17:07:23.475Z,6.90
2018-06-07T17:10:00.578Z,4.90
2018-06-07T17:12:31.866Z,4.07
2018-06-07T17:15:02.106Z,4.37
2018-06-07T17:17:31.917Z,3.60
2018-06-07T17:20:01.629Z,4.17
2018-06-07T17:22:31.563Z,3.67
2018-06-07T17:25:01.334Z,3.90
2018-06-07T17:27:32.222Z,4.43
2018-06-07T17:30:18.287Z,4.00
2018-06-07T17:32:48.859Z,3.63
2018-06-07T17:35:18.895Z,3.53
2018-06-07T17:37:48.776Z,3.40
2018-06-07T17:40:18.595Z,4.40
2018-06-07T17:42:49.159Z,3.93
2018-06-07T17:45:20.206Z,4.07
2018-06-07T17:47:50.128Z,3.70
2018-06-07T17:50:19.919Z,4.40
2018-06-07T17:52:49.434Z,4.00
2018-06-07T17:55:19.415Z,3.30
2018-06-07T17:57:49.401Z,4.10
2018-06-07T18:00:19.932Z,4.10
2018-06-07T18:02:50.032Z,3.50
2018-06-07T18:05:20.579Z,3.43
2018-06-07T18:07:50.575Z,4.70
2018-06-07T18:10:19.515Z,3.63
2018-06-07T18:12:49.331Z,3.77
2018-06-07T18:15:19.109Z,3.33
2018-06-07T18:17:49.519Z,3.37
2018-06-07T18:20:18.737Z,2.80
2018-06-07T18:22:48.533Z,3.07
2018-06-07T18:25:18.374Z,2.60
2018-06-07T18:27:48.191Z,3.30
2018-06-07T18:30:18.744Z,3.23
2018-06-07T18:32:48.785Z,2.87
2018-06-07T18:35:19.907Z,2.50
2018-06-07T18:37:49.471Z,2.90
2018-06-07T18:40:19.171Z,3.10
2018-06-07T18:42:49.815Z,3.40
2018-06-07T18:45:20.720Z,2.60
2018-06-07T18:47:50.624Z,3.13
2018-06-07T18:50:22.592Z,3.67
2018-06-07T18:52:53.428Z,2.33
2018-06-07T18:55:23.958Z,3.60
2018-06-07T18:57:53.985Z,2.97
2018-06-07T19:00:23.879Z,3.00
2018-06-07T19:02:53.692Z,2.90
2018-06-07T19:05:23.464Z,3.07
2018-06-07T19:07:53.275Z,3.40
2018-06-07T19:10:23.133Z,3.87
2018-06-07T19:12:52.943Z,3.50
2018-06-07T19:15:22.771Z,3.40
2018-06-07T19:17:52.580Z,3.40
2018-06-07T19:20:27.469Z,4.37
2018-06-07T19:22:57.271Z,4.50
2018-06-07T19:25:31.855Z,4.57
2018-06-07T19:28:01.958Z,4.97
2018-06-07T19:30:31.759Z,4.37
2018-06-07T19:33:06.264Z,3.83
2018-06-07T19:35:36.453Z,4.03
2018-06-07T19:38:06.293Z,4.40
2018-06-07T19:40:41.115Z,5.40
2018-06-07T19:43:10.699Z,3.30
2018-06-07T19:45:41.812Z,4.53
2018-06-07T19:48:11.631Z,4.10
2018-06-07T19:50:41.227Z,3.80
2018-06-07T19:53:12.147Z,5.23
2018-06-07T19:55:42.047Z,3.70
2018-06-07T19:58:11.911Z,4.40
2018-06-07T20:00:43.443Z,4.43
2018-06-07T20:03:14.495Z,4.23
2018-06-07T20:05:45.147Z,5.10
2018-06-07T20:08:15.971Z,4.43
2018-06-07T20:10:46.051Z,4.07
2018-06-07T20:13:16.613Z,4.90
2018-06-07T20:15:46.694Z,5.50
2018-06-07T20:18:17.459Z,4.90
2018-06-07T20:20:47.401Z,4.60
2018-06-07T20:23:18.088Z,4.57
2018-06-07T20:25:48.721Z,4.20
2018-06-07T20:28:18.836Z,4.27
2018-06-07T20:30:48.664Z,5.47
2018-06-07T20:33:19.620Z,5.30
2018-06-07T20:35:50.865Z,4.97
2018-06-07T20:38:21.082Z,4.90
2018-06-07T20:40:51.990Z,5.07
2018-06-07T20:43:21.743Z,4.30
2018-06-07T20:45:51.629Z,4.23
2018-06-07T20:48:21.381Z,4.43
2018-06-07T20:50:51.177Z,4.13
2018-06-07T20:53:20.913Z,3.90
2018-06-07T20:55:51.441Z,3.90
2018-06-07T20:58:21.651Z,4.40
2018-06-07T21:00:52.211Z,4.33
2018-06-07T21:03:23.155Z,4.67
2018-06-07T21:05:53.132Z,4.63
2018-06-07T21:08:22.927Z,4.60
2018-06-07T21:10:52.711Z,4.40
2018-06-07T21:13:22.594Z,4.57
2018-06-07T21:15:52.386Z,4.00
2018-06-07T21:18:22.166Z,4.10
2018-06-07T21:20:52.047Z,4.50
2018-06-07T21:23:21.834Z,5.03
2018-06-07T21:25:52.332Z,4.83
2018-06-07T21:28:22.421Z,4.20
2018-06-07T21:30:53.035Z,5.47
2018-06-07T21:33:24.106Z,4.90
2018-06-07T21:35:53.903Z,4.53
2018-06-07T21:38:23.671Z,5.80
2018-06-07T21:40:53.481Z,5.10
2018-06-07T21:43:24.404Z,5.10
2018-06-07T21:45:55.152Z,4.93
2018-06-07T21:48:24.931Z,4.77
2018-06-07T21:50:54.825Z,4.83
2018-06-07T21:53:24.644Z,5.10
2018-06-07T21:55:54.456Z,5.17
2018-06-07T21:58:24.199Z,5.00
